Arens Field


Codes: KRWN/
Name: Arens Field
City: Winamac
Country: United States
Elevation: 711 ft.

Photos at Arens Field


   Photos courtesy of SpottingLog. You can add your own sightings and photos by signing up for a free trial today.



No photos found.

Weather at Arens Field


Time (UTC)DescriptionTempratureWindCloud coverageVisibilityPressureHumidity
16-Jun-2024 12:00Broken Clouds18°C11 mph, SE77%10000m1018hPa52%
16-Jun-2024 15:00Broken Clouds20°C13 mph, S63%10000m1017hPa51%
16-Jun-2024 18:00Scattered Clouds25°C13 mph, S40%10000m1015hPa50%
16-Jun-2024 21:00Clear Sky30°C16 mph, S1%10000m1013hPa54%
17-Jun-2024 00:00Clear Sky28°C11 mph, S3%10000m1012hPa68%
17-Jun-2024 03:00Clear Sky25°C11 mph, S3%10000m1013hPa76%
17-Jun-2024 06:00Clear Sky24°C9 mph, S5%10000m1014hPa84%
17-Jun-2024 09:00Clear Sky23°C11 mph, SW7%10000m1014hPa87%
17-Jun-2024 12:00Clear Sky24°C9 mph, SW5%10000m1015hPa84%
17-Jun-2024 15:00Clear Sky29°C13 mph, SW0%10000m1015hPa64%
17-Jun-2024 18:00Clear Sky32°C16 mph, SW0%10000m1015hPa51%
17-Jun-2024 21:00Clear Sky33°C13 mph, S0%10000m1014hPa47%
18-Jun-2024 00:00Clear Sky30°C9 mph, S1%10000m1013hPa65%
18-Jun-2024 03:00Light Rain24°C9 mph, S68%10000m1017hPa85%
18-Jun-2024 06:00Broken Clouds23°C9 mph, S84%10000m1017hPa88%
18-Jun-2024 09:00Overcast Clouds23°C7 mph, S100%10000m1017hPa85%
18-Jun-2024 12:00Overcast Clouds23°C11 mph, S100%10000m1018hPa82%
18-Jun-2024 15:00Overcast Clouds26°C16 mph, S100%10000m1018hPa72%
18-Jun-2024 18:00Overcast Clouds27°C16 mph, S100%10000m1018hPa67%
18-Jun-2024 21:00Overcast Clouds28°C13 mph, SW100%10000m1018hPa63%
19-Jun-2024 00:00Overcast Clouds27°C7 mph, S100%10000m1018hPa71%
19-Jun-2024 03:00Light Rain25°C7 mph, S98%10000m1019hPa83%
19-Jun-2024 06:00Overcast Clouds23°C7 mph, S96%10000m1019hPa88%
19-Jun-2024 09:00Overcast Clouds22°C7 mph, SW100%10000m1021hPa89%
19-Jun-2024 12:00Overcast Clouds23°C4 mph, S100%10000m1023hPa87%
19-Jun-2024 15:00Overcast Clouds28°C9 mph, SW100%10000m1023hPa54%
19-Jun-2024 18:00Overcast Clouds31°C9 mph, SW100%10000m1023hPa47%
19-Jun-2024 21:00Overcast Clouds31°C9 mph, SW98%10000m1022hPa45%
20-Jun-2024 00:00Overcast Clouds29°C4 mph, W94%10000m1022hPa60%
20-Jun-2024 03:00Overcast Clouds25°C4 mph, NW87%10000m1024hPa68%
20-Jun-2024 06:00Broken Clouds24°C4 mph, NE84%10000m1024hPa71%
20-Jun-2024 09:00Scattered Clouds23°C4 mph, NE31%10000m1024hPa75%
20-Jun-2024 12:00Scattered Clouds24°C4 mph, NE45%10000m1025hPa76%
20-Jun-2024 15:00Overcast Clouds29°C4 mph, NE88%10000m1025hPa62%
20-Jun-2024 18:00Light Rain32°C2 mph, E92%10000m1025hPa51%
20-Jun-2024 21:00Overcast Clouds32°C2 mph, E100%10000m1023hPa48%
21-Jun-2024 00:00Overcast Clouds28°C7 mph, N100%10000m1022hPa69%
21-Jun-2024 03:00Overcast Clouds25°C7 mph, NE100%10000m1023hPa78%
21-Jun-2024 06:00Light Rain23°C7 mph, N100%10000m1023hPa87%
21-Jun-2024 09:00Light Rain22°C2 mph, NE100%10000m1022hPa90%